sensor_id;sensor_type;location;lat;lon;timestamp;P1;durP1;ratioP1;P2;durP2;ratioP2
5157;SDS011;2598;52.364;9.772;2023-12-20T00:00:59;8.37;;;4.60;;
5157;SDS011;2598;52.364;9.772;2023-12-20T00:03:25;10.60;;;4.60;;
5157;SDS011;2598;52.364;9.772;2023-12-20T00:05:51;9.13;;;4.10;;
5157;SDS011;2598;52.364;9.772;2023-12-20T00:08:17;7.20;;;4.30;;
5157;SDS011;2598;52.364;9.772;2023-12-20T00:10:43;6.97;;;4.00;;
5157;SDS011;2598;52.364;9.772;2023-12-20T00:13:09;7.03;;;3.40;;
5157;SDS011;2598;52.364;9.772;2023-12-20T00:15:35;6.80;;;3.80;;
5157;SDS011;2598;52.364;9.772;2023-12-20T00:18:01;12.30;;;4.20;;
5157;SDS011;2598;52.364;9.772;2023-12-20T00:20:28;9.90;;;3.73;;
5157;SDS011;2598;52.364;9.772;2023-12-20T00:22:55;9.10;;;4.20;;
5157;SDS011;2598;52.364;9.772;2023-12-20T00:25:22;7.47;;;3.83;;
5157;SDS011;2598;52.364;9.772;2023-12-20T00:27:48;9.77;;;4.23;;
5157;SDS011;2598;52.364;9.772;2023-12-20T00:30:14;11.03;;;3.97;;
5157;SDS011;2598;52.364;9.772;2023-12-20T00:32:40;8.60;;;3.83;;
5157;SDS011;2598;52.364;9.772;2023-12-20T00:35:14;10.97;;;4.53;;
5157;SDS011;2598;52.364;9.772;2023-12-20T00:37:40;9.50;;;3.33;;
5157;SDS011;2598;52.364;9.772;2023-12-20T00:40:06;9.67;;;3.57;;
5157;SDS011;2598;52.364;9.772;2023-12-20T00:42:33;11.30;;;4.00;;
5157;SDS011;2598;52.364;9.772;2023-12-20T00:44:59;10.97;;;3.20;;
5157;SDS011;2598;52.364;9.772;2023-12-20T00:47:25;6.03;;;3.00;;
5157;SDS011;2598;52.364;9.772;2023-12-20T00:49:51;8.00;;;3.37;;
5157;SDS011;2598;52.364;9.772;2023-12-20T00:52:17;8.63;;;3.63;;
5157;SDS011;2598;52.364;9.772;2023-12-20T00:54:44;7.47;;;2.90;;
5157;SDS011;2598;52.364;9.772;2023-12-20T00:57:10;9.40;;;3.40;;
5157;SDS011;2598;52.364;9.772;2023-12-20T00:59:36;7.73;;;2.90;;
5157;SDS011;2598;52.364;9.772;2023-12-20T01:02:02;7.03;;;2.60;;
5157;SDS011;2598;52.364;9.772;2023-12-20T01:04:28;9.30;;;2.43;;
5157;SDS011;2598;52.364;9.772;2023-12-20T01:06:54;6.27;;;2.20;;
5157;SDS011;2598;52.364;9.772;2023-12-20T01:09:20;10.03;;;3.00;;
5157;SDS011;2598;52.364;9.772;2023-12-20T01:11:48;8.17;;;2.23;;
5157;SDS011;2598;52.364;9.772;2023-12-20T01:14:14;6.13;;;2.13;;
5157;SDS011;2598;52.364;9.772;2023-12-20T01:16:40;7.03;;;2.37;;
5157;SDS011;2598;52.364;9.772;2023-12-20T01:19:06;7.93;;;2.20;;
5157;SDS011;2598;52.364;9.772;2023-12-20T01:21:32;11.40;;;2.33;;
5157;SDS011;2598;52.364;9.772;2023-12-20T01:23:58;5.90;;;1.70;;
5157;SDS011;2598;52.364;9.772;2023-12-20T01:26:24;9.23;;;1.90;;
5157;SDS011;2598;52.364;9.772;2023-12-20T01:28:50;7.67;;;1.90;;
5157;SDS011;2598;52.364;9.772;2023-12-20T01:31:16;10.53;;;2.03;;
5157;SDS011;2598;52.364;9.772;2023-12-20T01:33:42;4.37;;;1.70;;
5157;SDS011;2598;52.364;9.772;2023-12-20T01:36:08;7.90;;;1.70;;
5157;SDS011;2598;52.364;9.772;2023-12-20T01:38:34;5.10;;;2.10;;
5157;SDS011;2598;52.364;9.772;2023-12-20T01:41:00;11.40;;;2.90;;
5157;SDS011;2598;52.364;9.772;2023-12-20T01:43:26;9.73;;;1.80;;
5157;SDS011;2598;52.364;9.772;2023-12-20T01:45:52;11.47;;;1.90;;
5157;SDS011;2598;52.364;9.772;2023-12-20T01:48:18;7.33;;;1.90;;
5157;SDS011;2598;52.364;9.772;2023-12-20T01:50:45;9.73;;;2.00;;
5157;SDS011;2598;52.364;9.772;2023-12-20T01:53:12;15.40;;;1.70;;
5157;SDS011;2598;52.364;9.772;2023-12-20T01:55:39;11.93;;;2.10;;
5157;SDS011;2598;52.364;9.772;2023-12-20T01:58:06;12.83;;;1.90;;
5157;SDS011;2598;52.364;9.772;2023-12-20T02:00:32;9.70;;;1.77;;
5157;SDS011;2598;52.364;9.772;2023-12-20T02:03:01;7.63;;;1.50;;
5157;SDS011;2598;52.364;9.772;2023-12-20T02:05:29;4.73;;;1.43;;
5157;SDS011;2598;52.364;9.772;2023-12-20T02:07:55;7.13;;;1.47;;
5157;SDS011;2598;52.364;9.772;2023-12-20T02:10:21;7.63;;;1.80;;
5157;SDS011;2598;52.364;9.772;2023-12-20T02:12:47;7.63;;;1.53;;
5157;SDS011;2598;52.364;9.772;2023-12-20T02:15:13;8.43;;;1.57;;
5157;SDS011;2598;52.364;9.772;2023-12-20T02:17:39;8.50;;;1.53;;
5157;SDS011;2598;52.364;9.772;2023-12-20T02:20:05;12.13;;;1.60;;
5157;SDS011;2598;52.364;9.772;2023-12-20T02:22:32;6.33;;;1.70;;
5157;SDS011;2598;52.364;9.772;2023-12-20T02:24:58;7.03;;;1.50;;
5157;SDS011;2598;52.364;9.772;2023-12-20T02:27:24;5.40;;;1.07;;
5157;SDS011;2598;52.364;9.772;2023-12-20T02:29:50;6.00;;;1.53;;
5157;SDS011;2598;52.364;9.772;2023-12-20T02:32:17;8.93;;;1.40;;
5157;SDS011;2598;52.364;9.772;2023-12-20T02:34:43;8.43;;;1.67;;
5157;SDS011;2598;52.364;9.772;2023-12-20T02:37:09;7.07;;;2.40;;
5157;SDS011;2598;52.364;9.772;2023-12-20T02:39:35;9.23;;;1.57;;
5157;SDS011;2598;52.364;9.772;2023-12-20T02:42:01;6.63;;;1.80;;
5157;SDS011;2598;52.364;9.772;2023-12-20T02:44:27;9.00;;;1.97;;
5157;SDS011;2598;52.364;9.772;2023-12-20T02:46:53;6.80;;;1.40;;
5157;SDS011;2598;52.364;9.772;2023-12-20T02:49:19;6.80;;;1.33;;
5157;SDS011;2598;52.364;9.772;2023-12-20T02:51:45;8.87;;;1.80;;
5157;SDS011;2598;52.364;9.772;2023-12-20T02:54:11;5.40;;;1.50;;
5157;SDS011;2598;52.364;9.772;2023-12-20T02:56:37;7.60;;;1.80;;
5157;SDS011;2598;52.364;9.772;2023-12-20T02:59:03;7.73;;;1.70;;
5157;SDS011;2598;52.364;9.772;2023-12-20T03:01:33;7.17;;;1.30;;
5157;SDS011;2598;52.364;9.772;2023-12-20T03:04:00;11.17;;;1.47;;
5157;SDS011;2598;52.364;9.772;2023-12-20T03:06:26;10.33;;;1.70;;
5157;SDS011;2598;52.364;9.772;2023-12-20T03:08:52;6.87;;;1.70;;
5157;SDS011;2598;52.364;9.772;2023-12-20T03:11:18;16.87;;;1.90;;
5157;SDS011;2598;52.364;9.772;2023-12-20T03:13:44;5.53;;;1.40;;
5157;SDS011;2598;52.364;9.772;2023-12-20T03:16:10;8.30;;;1.83;;
5157;SDS011;2598;52.364;9.772;2023-12-20T03:18:36;4.90;;;1.50;;
5157;SDS011;2598;52.364;9.772;2023-12-20T03:21:02;7.53;;;1.60;;
5157;SDS011;2598;52.364;9.772;2023-12-20T03:23:29;6.50;;;1.20;;
5157;SDS011;2598;52.364;9.772;2023-12-20T03:25:55;7.63;;;1.30;;
5157;SDS011;2598;52.364;9.772;2023-12-20T03:28:22;9.63;;;1.47;;
5157;SDS011;2598;52.364;9.772;2023-12-20T03:30:48;5.53;;;1.47;;
5157;SDS011;2598;52.364;9.772;2023-12-20T03:33:14;12.40;;;1.73;;
5157;SDS011;2598;52.364;9.772;2023-12-20T03:35:40;9.40;;;1.83;;
5157;SDS011;2598;52.364;9.772;2023-12-20T03:38:06;6.43;;;1.23;;
5157;SDS011;2598;52.364;9.772;2023-12-20T03:40:32;6.00;;;1.10;;
5157;SDS011;2598;52.364;9.772;2023-12-20T03:42:58;4.80;;;1.53;;
5157;SDS011;2598;52.364;9.772;2023-12-20T03:45:24;10.33;;;1.40;;
5157;SDS011;2598;52.364;9.772;2023-12-20T03:47:50;7.30;;;1.30;;
5157;SDS011;2598;52.364;9.772;2023-12-20T03:50:20;9.63;;;1.70;;
5157;SDS011;2598;52.364;9.772;2023-12-20T03:52:46;6.33;;;1.10;;
5157;SDS011;2598;52.364;9.772;2023-12-20T03:55:12;13.23;;;1.47;;
5157;SDS011;2598;52.364;9.772;2023-12-20T03:57:38;5.70;;;1.20;;
5157;SDS011;2598;52.364;9.772;2023-12-20T04:00:04;10.73;;;1.60;;
5157;SDS011;2598;52.364;9.772;2023-12-20T04:02:30;10.03;;;1.17;;
5157;SDS011;2598;52.364;9.772;2023-12-20T04:04:56;8.20;;;1.40;;
5157;SDS011;2598;52.364;9.772;2023-12-20T04:07:22;7.90;;;1.47;;
5157;SDS011;2598;52.364;9.772;2023-12-20T04:09:48;6.80;;;1.07;;
5157;SDS011;2598;52.364;9.772;2023-12-20T04:12:14;8.20;;;1.23;;
5157;SDS011;2598;52.364;9.772;2023-12-20T04:14:40;10.83;;;1.67;;
5157;SDS011;2598;52.364;9.772;2023-12-20T04:17:06;10.40;;;1.40;;
5157;SDS011;2598;52.364;9.772;2023-12-20T04:19:32;6.70;;;1.37;;
5157;SDS011;2598;52.364;9.772;2023-12-20T04:21:58;6.83;;;1.20;;
5157;SDS011;2598;52.364;9.772;2023-12-20T04:24:24;5.13;;;1.27;;
5157;SDS011;2598;52.364;9.772;2023-12-20T04:26:50;6.00;;;1.40;;
5157;SDS011;2598;52.364;9.772;2023-12-20T04:29:16;5.93;;;1.23;;
5157;SDS011;2598;52.364;9.772;2023-12-20T04:31:42;8.03;;;1.53;;
5157;SDS011;2598;52.364;9.772;2023-12-20T04:34:08;5.70;;;1.33;;
5157;SDS011;2598;52.364;9.772;2023-12-20T04:36:34;6.90;;;1.17;;
5157;SDS011;2598;52.364;9.772;2023-12-20T04:39:00;7.77;;;1.43;;
5157;SDS011;2598;52.364;9.772;2023-12-20T04:41:26;5.63;;;1.07;;
5157;SDS011;2598;52.364;9.772;2023-12-20T04:43:52;4.50;;;1.20;;
5157;SDS011;2598;52.364;9.772;2023-12-20T04:46:18;11.17;;;1.73;;
5157;SDS011;2598;52.364;9.772;2023-12-20T04:48:44;8.97;;;1.60;;
5157;SDS011;2598;52.364;9.772;2023-12-20T04:51:10;7.83;;;1.60;;
5157;SDS011;2598;52.364;9.772;2023-12-20T04:53:36;6.67;;;1.50;;
5157;SDS011;2598;52.364;9.772;2023-12-20T04:56:02;11.27;;;1.80;;
5157;SDS011;2598;52.364;9.772;2023-12-20T04:58:28;9.77;;;2.20;;
5157;SDS011;2598;52.364;9.772;2023-12-20T05:00:54;11.03;;;1.43;;
5157;SDS011;2598;52.364;9.772;2023-12-20T05:03:20;7.03;;;1.43;;
5157;SDS011;2598;52.364;9.772;2023-12-20T05:05:46;15.57;;;2.17;;
5157;SDS011;2598;52.364;9.772;2023-12-20T05:08:12;8.97;;;1.70;;
5157;SDS011;2598;52.364;9.772;2023-12-20T05:10:38;11.10;;;1.47;;
5157;SDS011;2598;52.364;9.772;2023-12-20T05:13:05;12.33;;;1.90;;
5157;SDS011;2598;52.364;9.772;2023-12-20T05:15:31;6.70;;;1.57;;
5157;SDS011;2598;52.364;9.772;2023-12-20T05:17:57;8.03;;;1.40;;
5157;SDS011;2598;52.364;9.772;2023-12-20T05:20:23;9.67;;;1.83;;
5157;SDS011;2598;52.364;9.772;2023-12-20T05:22:49;12.40;;;2.00;;
5157;SDS011;2598;52.364;9.772;2023-12-20T05:25:15;14.00;;;1.70;;
5157;SDS011;2598;52.364;9.772;2023-12-20T05:27:41;7.47;;;1.30;;
5157;SDS011;2598;52.364;9.772;2023-12-20T05:30:07;8.87;;;1.70;;
5157;SDS011;2598;52.364;9.772;2023-12-20T05:32:33;8.63;;;1.93;;
5157;SDS011;2598;52.364;9.772;2023-12-20T05:34:59;16.07;;;2.10;;
5157;SDS011;2598;52.364;9.772;2023-12-20T05:37:25;13.80;;;2.40;;
5157;SDS011;2598;52.364;9.772;2023-12-20T05:39:51;10.00;;;2.17;;
5157;SDS011;2598;52.364;9.772;2023-12-20T05:42:17;11.20;;;2.27;;
5157;SDS011;2598;52.364;9.772;2023-12-20T05:44:43;10.50;;;2.07;;
5157;SDS011;2598;52.364;9.772;2023-12-20T05:47:09;11.03;;;1.90;;
5157;SDS011;2598;52.364;9.772;2023-12-20T05:49:35;7.40;;;1.90;;
5157;SDS011;2598;52.364;9.772;2023-12-20T05:52:01;11.70;;;2.03;;
5157;SDS011;2598;52.364;9.772;2023-12-20T05:54:27;19.23;;;2.60;;
5157;SDS011;2598;52.364;9.772;2023-12-20T05:56:53;12.00;;;2.40;;
5157;SDS011;2598;52.364;9.772;2023-12-20T05:59:20;6.43;;;1.53;;
5157;SDS011;2598;52.364;9.772;2023-12-20T06:01:46;10.50;;;2.03;;
5157;SDS011;2598;52.364;9.772;2023-12-20T06:04:12;7.47;;;1.70;;
5157;SDS011;2598;52.364;9.772;2023-12-20T06:06:41;17.50;;;2.50;;
5157;SDS011;2598;52.364;9.772;2023-12-20T06:09:08;14.73;;;2.30;;
5157;SDS011;2598;52.364;9.772;2023-12-20T06:11:34;10.97;;;1.93;;
5157;SDS011;2598;52.364;9.772;2023-12-20T06:14:00;15.40;;;2.20;;
5157;SDS011;2598;52.364;9.772;2023-12-20T06:16:26;9.33;;;2.00;;
5157;SDS011;2598;52.364;9.772;2023-12-20T06:18:52;10.17;;;2.17;;
5157;SDS011;2598;52.364;9.772;2023-12-20T06:21:18;14.70;;;1.80;;
5157;SDS011;2598;52.364;9.772;2023-12-20T06:23:44;12.27;;;1.90;;
5157;SDS011;2598;52.364;9.772;2023-12-20T06:26:10;15.00;;;2.30;;
5157;SDS011;2598;52.364;9.772;2023-12-20T06:28:36;9.90;;;1.70;;
5157;SDS011;2598;52.364;9.772;2023-12-20T06:31:02;7.10;;;1.77;;
5157;SDS011;2598;52.364;9.772;2023-12-20T06:33:28;10.40;;;2.40;;
5157;SDS011;2598;52.364;9.772;2023-12-20T06:35:56;10.17;;;2.10;;
5157;SDS011;2598;52.364;9.772;2023-12-20T06:38:22;20.67;;;2.43;;
5157;SDS011;2598;52.364;9.772;2023-12-20T06:40:48;7.37;;;2.27;;
5157;SDS011;2598;52.364;9.772;2023-12-20T06:43:14;15.63;;;2.40;;
5157;SDS011;2598;52.364;9.772;2023-12-20T06:45:40;12.43;;;2.20;;
5157;SDS011;2598;52.364;9.772;2023-12-20T06:48:06;13.53;;;2.67;;
5157;SDS011;2598;52.364;9.772;2023-12-20T06:50:32;11.30;;;2.33;;
5157;SDS011;2598;52.364;9.772;2023-12-20T06:52:58;8.10;;;2.30;;
5157;SDS011;2598;52.364;9.772;2023-12-20T06:55:24;14.53;;;2.53;;
5157;SDS011;2598;52.364;9.772;2023-12-20T06:57:50;9.00;;;2.10;;
5157;SDS011;2598;52.364;9.772;2023-12-20T07:00:16;10.63;;;2.20;;
5157;SDS011;2598;52.364;9.772;2023-12-20T07:02:44;11.40;;;2.60;;
5157;SDS011;2598;52.364;9.772;2023-12-20T07:05:12;14.40;;;2.27;;
5157;SDS011;2598;52.364;9.772;2023-12-20T07:07:38;8.43;;;1.83;;
5157;SDS011;2598;52.364;9.772;2023-12-20T07:10:04;11.67;;;2.17;;
5157;SDS011;2598;52.364;9.772;2023-12-20T07:12:32;10.10;;;2.17;;
5157;SDS011;2598;52.364;9.772;2023-12-20T07:14:58;9.00;;;1.93;;
5157;SDS011;2598;52.364;9.772;2023-12-20T07:17:24;12.57;;;2.30;;
5157;SDS011;2598;52.364;9.772;2023-12-20T07:19:50;12.43;;;2.00;;
5157;SDS011;2598;52.364;9.772;2023-12-20T07:22:16;17.03;;;2.40;;
5157;SDS011;2598;52.364;9.772;2023-12-20T07:24:42;12.70;;;2.53;;
5157;SDS011;2598;52.364;9.772;2023-12-20T07:27:08;11.43;;;2.53;;
5157;SDS011;2598;52.364;9.772;2023-12-20T07:29:34;15.73;;;2.37;;
5157;SDS011;2598;52.364;9.772;2023-12-20T07:32:00;5.30;;;1.80;;
5157;SDS011;2598;52.364;9.772;2023-12-20T07:34:26;8.90;;;1.83;;
5157;SDS011;2598;52.364;9.772;2023-12-20T07:36:52;10.20;;;2.30;;
5157;SDS011;2598;52.364;9.772;2023-12-20T07:39:18;12.50;;;2.53;;
5157;SDS011;2598;52.364;9.772;2023-12-20T07:41:44;12.53;;;2.80;;
5157;SDS011;2598;52.364;9.772;2023-12-20T07:44:10;12.80;;;2.30;;
5157;SDS011;2598;52.364;9.772;2023-12-20T07:46:36;13.20;;;2.50;;
5157;SDS011;2598;52.364;9.772;2023-12-20T07:49:03;13.23;;;2.63;;
5157;SDS011;2598;52.364;9.772;2023-12-20T07:51:29;17.13;;;3.07;;
5157;SDS011;2598;52.364;9.772;2023-12-20T07:53:55;9.77;;;2.10;;
5157;SDS011;2598;52.364;9.772;2023-12-20T07:56:21;8.27;;;2.33;;
5157;SDS011;2598;52.364;9.772;2023-12-20T07:58:47;18.10;;;2.30;;
5157;SDS011;2598;52.364;9.772;2023-12-20T08:01:15;8.50;;;2.30;;
5157;SDS011;2598;52.364;9.772;2023-12-20T08:03:43;9.83;;;1.70;;
5157;SDS011;2598;52.364;9.772;2023-12-20T08:06:09;7.73;;;2.20;;
5157;SDS011;2598;52.364;9.772;2023-12-20T08:08:35;6.27;;;1.80;;
5157;SDS011;2598;52.364;9.772;2023-12-20T08:11:01;15.17;;;2.77;;
5157;SDS011;2598;52.364;9.772;2023-12-20T08:13:27;14.70;;;3.00;;
5157;SDS011;2598;52.364;9.772;2023-12-20T08:15:53;15.43;;;2.53;;
5157;SDS011;2598;52.364;9.772;2023-12-20T08:18:20;9.67;;;2.37;;
5157;SDS011;2598;52.364;9.772;2023-12-20T08:20:47;13.63;;;2.83;;
5157;SDS011;2598;52.364;9.772;2023-12-20T08:23:13;9.53;;;2.50;;
5157;SDS011;2598;52.364;9.772;2023-12-20T08:25:39;18.10;;;3.10;;
5157;SDS011;2598;52.364;9.772;2023-12-20T08:28:05;11.40;;;2.33;;
5157;SDS011;2598;52.364;9.772;2023-12-20T08:30:31;10.40;;;2.50;;
5157;SDS011;2598;52.364;9.772;2023-12-20T08:32:59;12.70;;;3.00;;
5157;SDS011;2598;52.364;9.772;2023-12-20T08:35:26;12.70;;;3.00;;
5157;SDS011;2598;52.364;9.772;2023-12-20T08:37:52;10.60;;;2.50;;
5157;SDS011;2598;52.364;9.772;2023-12-20T08:40:17;9.80;;;3.07;;
5157;SDS011;2598;52.364;9.772;2023-12-20T08:42:43;12.63;;;2.77;;
5157;SDS011;2598;52.364;9.772;2023-12-20T08:45:09;6.30;;;2.00;;
5157;SDS011;2598;52.364;9.772;2023-12-20T08:47:35;14.07;;;3.20;;
5157;SDS011;2598;52.364;9.772;2023-12-20T08:50:02;14.80;;;2.40;;
5157;SDS011;2598;52.364;9.772;2023-12-20T08:52:28;11.37;;;3.00;;
5157;SDS011;2598;52.364;9.772;2023-12-20T08:54:55;9.90;;;2.10;;
5157;SDS011;2598;52.364;9.772;2023-12-20T08:57:21;8.43;;;2.90;;
5157;SDS011;2598;52.364;9.772;2023-12-20T08:59:48;9.60;;;2.70;;
5157;SDS011;2598;52.364;9.772;2023-12-20T09:02:14;12.33;;;2.73;;
5157;SDS011;2598;52.364;9.772;2023-12-20T09:04:40;8.73;;;2.33;;
5157;SDS011;2598;52.364;9.772;2023-12-20T09:07:06;7.47;;;2.33;;
5157;SDS011;2598;52.364;9.772;2023-12-20T09:09:32;13.07;;;2.20;;
5157;SDS011;2598;52.364;9.772;2023-12-20T09:11:59;13.00;;;2.73;;
5157;SDS011;2598;52.364;9.772;2023-12-20T09:14:25;9.67;;;2.40;;
5157;SDS011;2598;52.364;9.772;2023-12-20T09:16:51;9.23;;;1.90;;
5157;SDS011;2598;52.364;9.772;2023-12-20T09:19:17;10.27;;;1.93;;
5157;SDS011;2598;52.364;9.772;2023-12-20T09:21:43;8.73;;;2.13;;
5157;SDS011;2598;52.364;9.772;2023-12-20T09:24:09;11.00;;;2.63;;
5157;SDS011;2598;52.364;9.772;2023-12-20T09:26:35;7.73;;;2.17;;
5157;SDS011;2598;52.364;9.772;2023-12-20T09:29:01;12.43;;;2.70;;
5157;SDS011;2598;52.364;9.772;2023-12-20T09:31:27;14.83;;;2.53;;
5157;SDS011;2598;52.364;9.772;2023-12-20T09:33:53;11.53;;;2.10;;
5157;SDS011;2598;52.364;9.772;2023-12-20T09:36:19;8.47;;;2.00;;
5157;SDS011;2598;52.364;9.772;2023-12-20T09:38:45;12.00;;;2.40;;
5157;SDS011;2598;52.364;9.772;2023-12-20T09:41:11;11.40;;;2.40;;
5157;SDS011;2598;52.364;9.772;2023-12-20T09:43:37;9.00;;;2.47;;
5157;SDS011;2598;52.364;9.772;2023-12-20T09:46:05;15.37;;;3.00;;
5157;SDS011;2598;52.364;9.772;2023-12-20T09:48:32;11.53;;;2.13;;
5157;SDS011;2598;52.364;9.772;2023-12-20T09:50:58;12.73;;;2.80;;
5157;SDS011;2598;52.364;9.772;2023-12-20T09:53:24;9.90;;;2.80;;
5157;SDS011;2598;52.364;9.772;2023-12-20T09:55:55;10.97;;;2.27;;
5157;SDS011;2598;52.364;9.772;2023-12-20T09:58:21;12.70;;;3.23;;
5157;SDS011;2598;52.364;9.772;2023-12-20T10:00:47;13.10;;;2.47;;
5157;SDS011;2598;52.364;9.772;2023-12-20T10:03:13;9.10;;;2.00;;
5157;SDS011;2598;52.364;9.772;2023-12-20T10:05:39;6.10;;;1.73;;
5157;SDS011;2598;52.364;9.772;2023-12-20T10:08:08;14.67;;;2.00;;
5157;SDS011;2598;52.364;9.772;2023-12-20T10:10:34;14.03;;;1.87;;
5157;SDS011;2598;52.364;9.772;2023-12-20T10:13:10;12.57;;;2.57;;
5157;SDS011;2598;52.364;9.772;2023-12-20T10:15:36;14.80;;;2.83;;
5157;SDS011;2598;52.364;9.772;2023-12-20T10:18:03;9.97;;;2.30;;
5157;SDS011;2598;52.364;9.772;2023-12-20T10:20:29;13.30;;;2.17;;
5157;SDS011;2598;52.364;9.772;2023-12-20T10:22:56;14.43;;;1.73;;
5157;SDS011;2598;52.364;9.772;2023-12-20T10:25:22;8.80;;;2.07;;
5157;SDS011;2598;52.364;9.772;2023-12-20T10:27:49;11.17;;;2.33;;
5157;SDS011;2598;52.364;9.772;2023-12-20T10:30:15;11.50;;;2.47;;
5157;SDS011;2598;52.364;9.772;2023-12-20T10:32:41;15.30;;;1.90;;
5157;SDS011;2598;52.364;9.772;2023-12-20T10:35:08;11.73;;;2.00;;
5157;SDS011;2598;52.364;9.772;2023-12-20T10:37:37;10.73;;;2.23;;
5157;SDS011;2598;52.364;9.772;2023-12-20T10:40:04;13.57;;;2.17;;
5157;SDS011;2598;52.364;9.772;2023-12-20T10:42:31;10.83;;;2.40;;
5157;SDS011;2598;52.364;9.772;2023-12-20T10:44:59;10.67;;;2.27;;
5157;SDS011;2598;52.364;9.772;2023-12-20T10:47:25;9.47;;;2.23;;
5157;SDS011;2598;52.364;9.772;2023-12-20T10:49:52;9.40;;;2.00;;
5157;SDS011;2598;52.364;9.772;2023-12-20T10:52:18;8.37;;;2.20;;
5157;SDS011;2598;52.364;9.772;2023-12-20T10:54:45;12.90;;;2.00;;
5157;SDS011;2598;52.364;9.772;2023-12-20T10:57:11;16.27;;;3.10;;
5157;SDS011;2598;52.364;9.772;2023-12-20T10:59:37;11.53;;;2.50;;
5157;SDS011;2598;52.364;9.772;2023-12-20T11:02:06;8.70;;;2.17;;
5157;SDS011;2598;52.364;9.772;2023-12-20T11:04:37;9.97;;;2.17;;
5157;SDS011;2598;52.364;9.772;2023-12-20T11:09:36;6.07;;;1.80;;
5157;SDS011;2598;52.364;9.772;2023-12-20T11:12:18;7.43;;;2.67;;
5157;SDS011;2598;52.364;9.772;2023-12-20T11:14:46;14.13;;;2.37;;
5157;SDS011;2598;52.364;9.772;2023-12-20T11:17:12;6.40;;;1.90;;
5157;SDS011;2598;52.364;9.772;2023-12-20T11:22:20;7.60;;;1.87;;
5157;SDS011;2598;52.364;9.772;2023-12-20T11:24:46;10.97;;;2.70;;
5157;SDS011;2598;52.364;9.772;2023-12-20T11:27:12;10.70;;;2.30;;
5157;SDS011;2598;52.364;9.772;2023-12-20T11:29:38;8.53;;;1.80;;
5157;SDS011;2598;52.364;9.772;2023-12-20T11:34:56;11.10;;;2.10;;
5157;SDS011;2598;52.364;9.772;2023-12-20T11:37:28;14.80;;;2.43;;
5157;SDS011;2598;52.364;9.772;2023-12-20T11:39:55;5.97;;;1.80;;
5157;SDS011;2598;52.364;9.772;2023-12-20T11:42:21;16.40;;;2.27;;
5157;SDS011;2598;52.364;9.772;2023-12-20T11:44:47;9.07;;;2.00;;
5157;SDS011;2598;52.364;9.772;2023-12-20T11:47:13;8.67;;;1.87;;
5157;SDS011;2598;52.364;9.772;2023-12-20T11:49:40;12.37;;;2.47;;
5157;SDS011;2598;52.364;9.772;2023-12-20T11:52:06;7.90;;;2.17;;
5157;SDS011;2598;52.364;9.772;2023-12-20T11:54:32;8.30;;;1.90;;
5157;SDS011;2598;52.364;9.772;2023-12-20T11:56:58;6.10;;;1.30;;
5157;SDS011;2598;52.364;9.772;2023-12-20T11:59:24;4.43;;;1.20;;
5157;SDS011;2598;52.364;9.772;2023-12-20T12:01:50;4.43;;;1.00;;
5157;SDS011;2598;52.364;9.772;2023-12-20T12:04:17;3.30;;;0.80;;
5157;SDS011;2598;52.364;9.772;2023-12-20T12:06:43;5.70;;;1.00;;
5157;SDS011;2598;52.364;9.772;2023-12-20T12:09:10;4.67;;;0.90;;
5157;SDS011;2598;52.364;9.772;2023-12-20T12:11:36;3.63;;;0.90;;
5157;SDS011;2598;52.364;9.772;2023-12-20T12:14:02;4.07;;;1.00;;
5157;SDS011;2598;52.364;9.772;2023-12-20T12:16:28;4.40;;;1.10;;
5157;SDS011;2598;52.364;9.772;2023-12-20T12:18:58;14.10;;;1.73;;
5157;SDS011;2598;52.364;9.772;2023-12-20T12:21:24;3.77;;;0.80;;
5157;SDS011;2598;52.364;9.772;2023-12-20T12:23:50;5.07;;;1.13;;
5157;SDS011;2598;52.364;9.772;2023-12-20T12:26:16;4.27;;;1.03;;
5157;SDS011;2598;52.364;9.772;2023-12-20T12:28:42;4.00;;;1.13;;
5157;SDS011;2598;52.364;9.772;2023-12-20T12:31:08;6.20;;;1.23;;
5157;SDS011;2598;52.364;9.772;2023-12-20T12:33:40;4.90;;;1.00;;
5157;SDS011;2598;52.364;9.772;2023-12-20T12:36:06;4.83;;;0.90;;
5157;SDS011;2598;52.364;9.772;2023-12-20T12:38:32;3.00;;;0.63;;
5157;SDS011;2598;52.364;9.772;2023-12-20T12:40:59;5.23;;;0.90;;
5157;SDS011;2598;52.364;9.772;2023-12-20T12:43:25;5.70;;;0.70;;
5157;SDS011;2598;52.364;9.772;2023-12-20T12:45:51;3.10;;;0.70;;
5157;SDS011;2598;52.364;9.772;2023-12-20T12:48:17;4.87;;;1.00;;
5157;SDS011;2598;52.364;9.772;2023-12-20T12:50:45;4.33;;;1.00;;
5157;SDS011;2598;52.364;9.772;2023-12-20T12:53:11;4.23;;;0.70;;
5157;SDS011;2598;52.364;9.772;2023-12-20T12:55:37;4.83;;;0.80;;
5157;SDS011;2598;52.364;9.772;2023-12-20T12:58:03;3.73;;;0.80;;
5157;SDS011;2598;52.364;9.772;2023-12-20T13:00:29;3.30;;;0.73;;
5157;SDS011;2598;52.364;9.772;2023-12-20T13:02:55;3.50;;;0.93;;
5157;SDS011;2598;52.364;9.772;2023-12-20T13:05:21;10.90;;;1.30;;
5157;SDS011;2598;52.364;9.772;2023-12-20T13:07:47;5.23;;;1.27;;
5157;SDS011;2598;52.364;9.772;2023-12-20T13:10:13;8.77;;;1.17;;
5157;SDS011;2598;52.364;9.772;2023-12-20T13:12:41;4.50;;;0.80;;
5157;SDS011;2598;52.364;9.772;2023-12-20T13:15:07;7.00;;;1.10;;
5157;SDS011;2598;52.364;9.772;2023-12-20T13:17:34;4.10;;;1.00;;
5157;SDS011;2598;52.364;9.772;2023-12-20T13:20:00;8.97;;;0.80;;
5157;SDS011;2598;52.364;9.772;2023-12-20T13:22:26;6.70;;;1.10;;
5157;SDS011;2598;52.364;9.772;2023-12-20T13:24:53;4.07;;;0.80;;
5157;SDS011;2598;52.364;9.772;2023-12-20T13:27:19;7.53;;;1.20;;
5157;SDS011;2598;52.364;9.772;2023-12-20T13:29:45;7.00;;;1.23;;
5157;SDS011;2598;52.364;9.772;2023-12-20T13:32:11;6.77;;;1.00;;
5157;SDS011;2598;52.364;9.772;2023-12-20T13:34:37;3.93;;;0.80;;
5157;SDS011;2598;52.364;9.772;2023-12-20T13:37:03;4.40;;;0.97;;
5157;SDS011;2598;52.364;9.772;2023-12-20T13:39:29;7.20;;;1.00;;
5157;SDS011;2598;52.364;9.772;2023-12-20T13:41:56;4.00;;;0.90;;
5157;SDS011;2598;52.364;9.772;2023-12-20T13:44:22;6.23;;;1.17;;
5157;SDS011;2598;52.364;9.772;2023-12-20T13:46:49;6.93;;;0.83;;
5157;SDS011;2598;52.364;9.772;2023-12-20T13:49:15;9.13;;;1.53;;
5157;SDS011;2598;52.364;9.772;2023-12-20T13:51:41;9.23;;;1.57;;
5157;SDS011;2598;52.364;9.772;2023-12-20T13:54:07;7.73;;;1.63;;
5157;SDS011;2598;52.364;9.772;2023-12-20T13:56:34;6.97;;;1.43;;
5157;SDS011;2598;52.364;9.772;2023-12-20T13:59:00;7.53;;;1.03;;
5157;SDS011;2598;52.364;9.772;2023-12-20T14:01:26;4.10;;;1.10;;
5157;SDS011;2598;52.364;9.772;2023-12-20T14:03:52;7.00;;;1.30;;
5157;SDS011;2598;52.364;9.772;2023-12-20T14:06:18;4.90;;;1.00;;
5157;SDS011;2598;52.364;9.772;2023-12-20T14:08:44;7.10;;;1.10;;
5157;SDS011;2598;52.364;9.772;2023-12-20T14:11:10;3.93;;;1.03;;
5157;SDS011;2598;52.364;9.772;2023-12-20T14:13:36;5.70;;;1.30;;
5157;SDS011;2598;52.364;9.772;2023-12-20T14:16:02;4.70;;;1.20;;
5157;SDS011;2598;52.364;9.772;2023-12-20T14:18:29;5.60;;;1.00;;
5157;SDS011;2598;52.364;9.772;2023-12-20T14:20:55;5.37;;;1.10;;
5157;SDS011;2598;52.364;9.772;2023-12-20T14:23:21;6.30;;;1.00;;
5157;SDS011;2598;52.364;9.772;2023-12-20T14:25:48;8.73;;;1.47;;
5157;SDS011;2598;52.364;9.772;2023-12-20T14:28:14;8.30;;;2.13;;
5157;SDS011;2598;52.364;9.772;2023-12-20T14:30:40;5.40;;;1.30;;
5157;SDS011;2598;52.364;9.772;2023-12-20T14:33:06;4.60;;;1.10;;
5157;SDS011;2598;52.364;9.772;2023-12-20T14:35:32;6.77;;;1.00;;
5157;SDS011;2598;52.364;9.772;2023-12-20T14:37:58;6.80;;;1.07;;
5157;SDS011;2598;52.364;9.772;2023-12-20T14:40:24;4.47;;;1.00;;
5157;SDS011;2598;52.364;9.772;2023-12-20T14:42:50;4.50;;;1.10;;
5157;SDS011;2598;52.364;9.772;2023-12-20T14:45:16;5.00;;;0.93;;
5157;SDS011;2598;52.364;9.772;2023-12-20T14:47:43;7.33;;;1.77;;
5157;SDS011;2598;52.364;9.772;2023-12-20T14:50:09;7.20;;;1.20;;
5157;SDS011;2598;52.364;9.772;2023-12-20T14:52:36;7.03;;;1.20;;
5157;SDS011;2598;52.364;9.772;2023-12-20T14:55:03;9.33;;;1.10;;
5157;SDS011;2598;52.364;9.772;2023-12-20T14:57:29;7.63;;;1.23;;
5157;SDS011;2598;52.364;9.772;2023-12-20T14:59:55;6.70;;;1.30;;
5157;SDS011;2598;52.364;9.772;2023-12-20T15:02:21;8.30;;;1.50;;
5157;SDS011;2598;52.364;9.772;2023-12-20T15:04:47;9.50;;;1.27;;
5157;SDS011;2598;52.364;9.772;2023-12-20T15:07:14;4.07;;;0.87;;
5157;SDS011;2598;52.364;9.772;2023-12-20T15:09:40;7.53;;;1.47;;
5157;SDS011;2598;52.364;9.772;2023-12-20T15:12:10;11.67;;;1.40;;